sensor_id;sensor_type;location;lat;lon;timestamp;temperature;humidity
39665;DHT22;26679;50.872;4.332;2022-10-16T00:01:54;15.50;99.90
39665;DHT22;26679;50.872;4.332;2022-10-16T00:04:20;15.50;99.90
39665;DHT22;26679;50.872;4.332;2022-10-16T00:06:45;15.50;99.90
39665;DHT22;26679;50.872;4.332;2022-10-16T00:09:11;15.50;99.90
39665;DHT22;26679;50.872;4.332;2022-10-16T00:11:37;15.50;99.90
39665;DHT22;26679;50.872;4.332;2022-10-16T00:14:04;15.50;99.90
39665;DHT22;26679;50.872;4.332;2022-10-16T00:16:30;15.50;99.90
39665;DHT22;26679;50.872;4.332;2022-10-16T00:18:55;15.50;99.90
39665;DHT22;26679;50.872;4.332;2022-10-16T00:21:22;15.50;99.90
39665;DHT22;26679;50.872;4.332;2022-10-16T00:23:56;15.40;99.90
39665;DHT22;26679;50.872;4.332;2022-10-16T00:26:22;15.40;99.90
39665;DHT22;26679;50.872;4.332;2022-10-16T00:28:48;15.40;99.90
39665;DHT22;26679;50.872;4.332;2022-10-16T00:31:14;15.40;99.90
39665;DHT22;26679;50.872;4.332;2022-10-16T00:33:40;15.40;99.90
39665;DHT22;26679;50.872;4.332;2022-10-16T00:36:13;15.50;99.90
39665;DHT22;26679;50.872;4.332;2022-10-16T00:38:39;15.40;99.90
39665;DHT22;26679;50.872;4.332;2022-10-16T00:41:05;15.30;99.90
39665;DHT22;26679;50.872;4.332;2022-10-16T00:43:39;15.30;99.90
39665;DHT22;26679;50.872;4.332;2022-10-16T00:46:08;15.30;99.90
39665;DHT22;26679;50.872;4.332;2022-10-16T00:48:35;15.30;99.90
39665;DHT22;26679;50.872;4.332;2022-10-16T00:51:01;15.20;99.90
39665;DHT22;26679;50.872;4.332;2022-10-16T00:53:27;15.20;99.90
39665;DHT22;26679;50.872;4.332;2022-10-16T00:55:52;15.20;99.90
39665;DHT22;26679;50.872;4.332;2022-10-16T00:58:18;15.20;99.90
39665;DHT22;26679;50.872;4.332;2022-10-16T01:00:44;15.20;99.90
39665;DHT22;26679;50.872;4.332;2022-10-16T01:05:49;15.10;99.90
39665;DHT22;26679;50.872;4.332;2022-10-16T01:08:21;15.00;99.90
39665;DHT22;26679;50.872;4.332;2022-10-16T01:13:24;15.10;99.90
39665;DHT22;26679;50.872;4.332;2022-10-16T01:18:24;15.10;99.90
39665;DHT22;26679;50.872;4.332;2022-10-16T01:20:54;15.10;99.90
39665;DHT22;26679;50.872;4.332;2022-10-16T01:25:50;15.20;99.90
39665;DHT22;26679;50.872;4.332;2022-10-16T01:28:16;15.20;99.90
39665;DHT22;26679;50.872;4.332;2022-10-16T01:30:44;15.20;99.90
39665;DHT22;26679;50.872;4.332;2022-10-16T01:35:43;15.10;99.90
39665;DHT22;26679;50.872;4.332;2022-10-16T01:38:12;15.00;99.90
39665;DHT22;26679;50.872;4.332;2022-10-16T01:40:41;14.90;99.90
39665;DHT22;26679;50.872;4.332;2022-10-16T01:43:14;15.00;99.90
39665;DHT22;26679;50.872;4.332;2022-10-16T01:45:41;15.00;99.90
39665;DHT22;26679;50.872;4.332;2022-10-16T01:48:08;15.00;99.90
39665;DHT22;26679;50.872;4.332;2022-10-16T01:50:36;15.00;99.90
39665;DHT22;26679;50.872;4.332;2022-10-16T01:53:02;15.00;99.90
39665;DHT22;26679;50.872;4.332;2022-10-16T01:55:30;15.10;99.90
39665;DHT22;26679;50.872;4.332;2022-10-16T01:57:57;15.00;99.90
39665;DHT22;26679;50.872;4.332;2022-10-16T02:00:25;15.00;99.90
39665;DHT22;26679;50.872;4.332;2022-10-16T02:02:51;15.00;99.90
39665;DHT22;26679;50.872;4.332;2022-10-16T02:05:23;14.90;99.90
39665;DHT22;26679;50.872;4.332;2022-10-16T02:07:49;14.90;99.90
39665;DHT22;26679;50.872;4.332;2022-10-16T02:10:15;14.90;99.90
39665;DHT22;26679;50.872;4.332;2022-10-16T02:12:42;15.00;99.90
39665;DHT22;26679;50.872;4.332;2022-10-16T02:15:09;15.10;99.90
39665;DHT22;26679;50.872;4.332;2022-10-16T02:17:35;15.10;99.90
39665;DHT22;26679;50.872;4.332;2022-10-16T02:20:00;15.00;99.90
39665;DHT22;26679;50.872;4.332;2022-10-16T02:24:53;14.90;99.90
39665;DHT22;26679;50.872;4.332;2022-10-16T02:27:32;15.00;99.90
39665;DHT22;26679;50.872;4.332;2022-10-16T02:30:04;15.00;99.90
39665;DHT22;26679;50.872;4.332;2022-10-16T02:32:33;15.00;99.90
39665;DHT22;26679;50.872;4.332;2022-10-16T02:34:59;15.00;99.90
39665;DHT22;26679;50.872;4.332;2022-10-16T02:37:25;15.00;99.90
39665;DHT22;26679;50.872;4.332;2022-10-16T02:39:51;15.00;99.90
39665;DHT22;26679;50.872;4.332;2022-10-16T02:42:18;15.00;99.90
39665;DHT22;26679;50.872;4.332;2022-10-16T02:44:44;14.90;99.90
39665;DHT22;26679;50.872;4.332;2022-10-16T02:47:09;14.90;99.90
39665;DHT22;26679;50.872;4.332;2022-10-16T02:49:35;14.80;99.90
39665;DHT22;26679;50.872;4.332;2022-10-16T02:52:00;14.90;99.90
39665;DHT22;26679;50.872;4.332;2022-10-16T02:54:26;14.80;99.90
39665;DHT22;26679;50.872;4.332;2022-10-16T02:56:51;14.90;99.90
39665;DHT22;26679;50.872;4.332;2022-10-16T02:59:17;14.90;99.90
39665;DHT22;26679;50.872;4.332;2022-10-16T03:01:42;14.90;99.90
39665;DHT22;26679;50.872;4.332;2022-10-16T03:04:08;14.90;99.90
39665;DHT22;26679;50.872;4.332;2022-10-16T03:06:34;14.90;99.90
39665;DHT22;26679;50.872;4.332;2022-10-16T03:08:59;14.80;99.90
39665;DHT22;26679;50.872;4.332;2022-10-16T03:11:25;14.80;99.90
39665;DHT22;26679;50.872;4.332;2022-10-16T03:13:51;14.80;99.90
39665;DHT22;26679;50.872;4.332;2022-10-16T03:16:17;14.70;99.90
39665;DHT22;26679;50.872;4.332;2022-10-16T03:18:42;14.80;99.90
39665;DHT22;26679;50.872;4.332;2022-10-16T03:21:08;14.90;99.90
39665;DHT22;26679;50.872;4.332;2022-10-16T03:23:33;14.90;99.90
39665;DHT22;26679;50.872;4.332;2022-10-16T03:25:59;14.90;99.90
39665;DHT22;26679;50.872;4.332;2022-10-16T03:28:24;14.90;99.90
39665;DHT22;26679;50.872;4.332;2022-10-16T03:30:50;14.90;99.90
39665;DHT22;26679;50.872;4.332;2022-10-16T03:33:15;14.90;99.90
39665;DHT22;26679;50.872;4.332;2022-10-16T03:35:41;14.80;99.90
39665;DHT22;26679;50.872;4.332;2022-10-16T03:38:06;14.70;99.90
39665;DHT22;26679;50.872;4.332;2022-10-16T03:40:32;14.70;99.90
39665;DHT22;26679;50.872;4.332;2022-10-16T03:42:57;14.70;99.90
39665;DHT22;26679;50.872;4.332;2022-10-16T03:45:23;15.20;99.90
39665;DHT22;26679;50.872;4.332;2022-10-16T03:47:49;14.90;99.90
39665;DHT22;26679;50.872;4.332;2022-10-16T03:50:14;14.80;99.90
39665;DHT22;26679;50.872;4.332;2022-10-16T03:52:40;14.80;99.90
39665;DHT22;26679;50.872;4.332;2022-10-16T03:55:05;14.80;99.90
39665;DHT22;26679;50.872;4.332;2022-10-16T03:57:31;14.90;99.90
39665;DHT22;26679;50.872;4.332;2022-10-16T03:59:57;14.80;99.90
39665;DHT22;26679;50.872;4.332;2022-10-16T04:02:22;14.80;99.90
39665;DHT22;26679;50.872;4.332;2022-10-16T04:04:48;14.90;99.90
39665;DHT22;26679;50.872;4.332;2022-10-16T04:07:13;14.90;99.90
39665;DHT22;26679;50.872;4.332;2022-10-16T04:09:39;14.90;99.90
39665;DHT22;26679;50.872;4.332;2022-10-16T04:12:04;14.80;99.90
39665;DHT22;26679;50.872;4.332;2022-10-16T04:14:30;14.90;99.90
39665;DHT22;26679;50.872;4.332;2022-10-16T04:16:55;14.80;99.90
39665;DHT22;26679;50.872;4.332;2022-10-16T04:19:21;15.00;99.90
39665;DHT22;26679;50.872;4.332;2022-10-16T04:21:46;14.90;99.90
39665;DHT22;26679;50.872;4.332;2022-10-16T04:24:12;14.90;99.90
39665;DHT22;26679;50.872;4.332;2022-10-16T04:26:37;14.90;99.90
39665;DHT22;26679;50.872;4.332;2022-10-16T04:29:03;14.70;99.90
39665;DHT22;26679;50.872;4.332;2022-10-16T04:31:28;14.70;99.90
39665;DHT22;26679;50.872;4.332;2022-10-16T04:33:54;14.70;99.90
39665;DHT22;26679;50.872;4.332;2022-10-16T04:36:19;14.70;99.90
39665;DHT22;26679;50.872;4.332;2022-10-16T04:38:45;14.60;99.90
39665;DHT22;26679;50.872;4.332;2022-10-16T04:41:10;14.60;99.90
39665;DHT22;26679;50.872;4.332;2022-10-16T04:43:36;14.70;99.90
39665;DHT22;26679;50.872;4.332;2022-10-16T04:46:01;14.70;99.90
39665;DHT22;26679;50.872;4.332;2022-10-16T04:48:27;14.60;99.90
39665;DHT22;26679;50.872;4.332;2022-10-16T04:50:52;14.60;99.90
39665;DHT22;26679;50.872;4.332;2022-10-16T04:53:18;14.70;99.90
39665;DHT22;26679;50.872;4.332;2022-10-16T04:55:43;14.70;99.90
39665;DHT22;26679;50.872;4.332;2022-10-16T04:58:09;14.70;99.90
39665;DHT22;26679;50.872;4.332;2022-10-16T05:00:35;14.70;99.90
39665;DHT22;26679;50.872;4.332;2022-10-16T05:03:00;14.70;99.90
39665;DHT22;26679;50.872;4.332;2022-10-16T05:05:27;14.70;99.90
39665;DHT22;26679;50.872;4.332;2022-10-16T05:07:53;14.70;99.90
39665;DHT22;26679;50.872;4.332;2022-10-16T05:10:18;14.70;99.90
39665;DHT22;26679;50.872;4.332;2022-10-16T05:12:44;14.60;99.90
39665;DHT22;26679;50.872;4.332;2022-10-16T05:15:10;14.40;99.90
39665;DHT22;26679;50.872;4.332;2022-10-16T05:17:35;14.40;99.90
39665;DHT22;26679;50.872;4.332;2022-10-16T05:20:01;14.40;99.90
39665;DHT22;26679;50.872;4.332;2022-10-16T05:22:27;14.50;99.90
39665;DHT22;26679;50.872;4.332;2022-10-16T05:24:52;14.50;99.90
39665;DHT22;26679;50.872;4.332;2022-10-16T05:27:18;14.50;99.90
39665;DHT22;26679;50.872;4.332;2022-10-16T05:29:46;14.50;99.90
39665;DHT22;26679;50.872;4.332;2022-10-16T05:32:12;14.50;99.90
39665;DHT22;26679;50.872;4.332;2022-10-16T05:34:38;14.40;99.90
39665;DHT22;26679;50.872;4.332;2022-10-16T05:37:04;14.30;99.90
39665;DHT22;26679;50.872;4.332;2022-10-16T05:39:29;14.30;99.90
39665;DHT22;26679;50.872;4.332;2022-10-16T05:41:55;14.40;99.90
39665;DHT22;26679;50.872;4.332;2022-10-16T05:44:20;14.30;99.90
39665;DHT22;26679;50.872;4.332;2022-10-16T05:46:46;14.30;99.90
39665;DHT22;26679;50.872;4.332;2022-10-16T05:49:12;14.30;99.90
39665;DHT22;26679;50.872;4.332;2022-10-16T05:51:37;14.40;99.90
39665;DHT22;26679;50.872;4.332;2022-10-16T05:54:03;14.30;99.90
39665;DHT22;26679;50.872;4.332;2022-10-16T05:56:28;14.40;99.90
39665;DHT22;26679;50.872;4.332;2022-10-16T05:58:54;14.50;99.90
39665;DHT22;26679;50.872;4.332;2022-10-16T06:01:19;14.50;99.90
39665;DHT22;26679;50.872;4.332;2022-10-16T06:03:52;14.50;99.90
39665;DHT22;26679;50.872;4.332;2022-10-16T06:06:19;14.40;99.90
39665;DHT22;26679;50.872;4.332;2022-10-16T06:08:45;14.50;99.90
39665;DHT22;26679;50.872;4.332;2022-10-16T06:11:12;14.40;99.90
39665;DHT22;26679;50.872;4.332;2022-10-16T06:13:38;14.40;99.90
39665;DHT22;26679;50.872;4.332;2022-10-16T06:16:06;14.30;99.90
39665;DHT22;26679;50.872;4.332;2022-10-16T06:18:31;14.40;99.90
39665;DHT22;26679;50.872;4.332;2022-10-16T06:20:57;14.40;99.90
39665;DHT22;26679;50.872;4.332;2022-10-16T06:23:24;14.40;99.90
39665;DHT22;26679;50.872;4.332;2022-10-16T06:25:49;14.50;99.90
39665;DHT22;26679;50.872;4.332;2022-10-16T06:28:15;14.50;99.90
39665;DHT22;26679;50.872;4.332;2022-10-16T06:30:41;14.50;99.90
39665;DHT22;26679;50.872;4.332;2022-10-16T06:33:09;14.60;99.90
39665;DHT22;26679;50.872;4.332;2022-10-16T06:35:35;14.60;99.90
39665;DHT22;26679;50.872;4.332;2022-10-16T06:38:00;14.60;99.90
39665;DHT22;26679;50.872;4.332;2022-10-16T06:40:26;14.70;99.90
39665;DHT22;26679;50.872;4.332;2022-10-16T06:42:51;14.70;99.90
39665;DHT22;26679;50.872;4.332;2022-10-16T06:45:19;14.70;99.90
39665;DHT22;26679;50.872;4.332;2022-10-16T06:47:45;14.70;99.90
39665;DHT22;26679;50.872;4.332;2022-10-16T06:50:10;14.80;99.90
39665;DHT22;26679;50.872;4.332;2022-10-16T06:52:36;14.70;99.90
39665;DHT22;26679;50.872;4.332;2022-10-16T06:55:02;14.70;99.90
39665;DHT22;26679;50.872;4.332;2022-10-16T06:57:28;14.80;99.90
39665;DHT22;26679;50.872;4.332;2022-10-16T06:59:53;14.80;99.90
39665;DHT22;26679;50.872;4.332;2022-10-16T07:02:19;14.80;99.90
39665;DHT22;26679;50.872;4.332;2022-10-16T07:04:44;14.90;99.90
39665;DHT22;26679;50.872;4.332;2022-10-16T07:07:10;14.90;99.90
39665;DHT22;26679;50.872;4.332;2022-10-16T07:09:35;14.80;99.90
39665;DHT22;26679;50.872;4.332;2022-10-16T07:12:01;14.90;99.90
39665;DHT22;26679;50.872;4.332;2022-10-16T07:14:27;14.90;99.90
39665;DHT22;26679;50.872;4.332;2022-10-16T07:16:53;14.90;99.90
39665;DHT22;26679;50.872;4.332;2022-10-16T07:19:18;14.80;99.90
39665;DHT22;26679;50.872;4.332;2022-10-16T07:21:44;14.90;99.90
39665;DHT22;26679;50.872;4.332;2022-10-16T07:24:11;14.90;99.90
39665;DHT22;26679;50.872;4.332;2022-10-16T07:26:38;14.90;99.90
39665;DHT22;26679;50.872;4.332;2022-10-16T07:29:11;14.90;99.90
39665;DHT22;26679;50.872;4.332;2022-10-16T07:31:38;15.00;99.90
39665;DHT22;26679;50.872;4.332;2022-10-16T07:34:04;15.00;99.90
39665;DHT22;26679;50.872;4.332;2022-10-16T07:36:29;15.00;99.90
39665;DHT22;26679;50.872;4.332;2022-10-16T07:38:55;14.90;99.90
39665;DHT22;26679;50.872;4.332;2022-10-16T07:41:21;15.00;99.90
39665;DHT22;26679;50.872;4.332;2022-10-16T07:43:47;15.00;99.90
39665;DHT22;26679;50.872;4.332;2022-10-16T07:46:13;14.90;99.90
39665;DHT22;26679;50.872;4.332;2022-10-16T07:48:39;14.90;99.90
39665;DHT22;26679;50.872;4.332;2022-10-16T07:51:05;14.90;99.90
39665;DHT22;26679;50.872;4.332;2022-10-16T07:53:31;15.00;99.90
39665;DHT22;26679;50.872;4.332;2022-10-16T07:55:57;15.10;99.90
39665;DHT22;26679;50.872;4.332;2022-10-16T07:58:23;15.20;99.90
39665;DHT22;26679;50.872;4.332;2022-10-16T08:00:50;15.30;99.90
39665;DHT22;26679;50.872;4.332;2022-10-16T08:03:16;15.80;99.90
39665;DHT22;26679;50.872;4.332;2022-10-16T08:05:41;16.20;99.90
39665;DHT22;26679;50.872;4.332;2022-10-16T08:08:10;16.50;99.90
39665;DHT22;26679;50.872;4.332;2022-10-16T08:10:36;16.70;99.90
39665;DHT22;26679;50.872;4.332;2022-10-16T08:13:02;16.90;99.90
39665;DHT22;26679;50.872;4.332;2022-10-16T08:15:27;17.40;99.90
39665;DHT22;26679;50.872;4.332;2022-10-16T08:17:57;18.00;99.90
39665;DHT22;26679;50.872;4.332;2022-10-16T08:20:23;18.50;99.90
39665;DHT22;26679;50.872;4.332;2022-10-16T08:22:48;18.60;99.90
39665;DHT22;26679;50.872;4.332;2022-10-16T08:25:14;18.40;99.90
39665;DHT22;26679;50.872;4.332;2022-10-16T08:27:39;18.00;99.90
39665;DHT22;26679;50.872;4.332;2022-10-16T08:30:05;17.40;99.90
39665;DHT22;26679;50.872;4.332;2022-10-16T08:32:30;17.00;99.90
39665;DHT22;26679;50.872;4.332;2022-10-16T08:34:56;16.70;99.90
39665;DHT22;26679;50.872;4.332;2022-10-16T08:37:21;16.50;99.90
39665;DHT22;26679;50.872;4.332;2022-10-16T08:39:48;16.30;99.90
39665;DHT22;26679;50.872;4.332;2022-10-16T08:42:20;16.30;99.90
39665;DHT22;26679;50.872;4.332;2022-10-16T08:49:52;16.10;99.90
39665;DHT22;26679;50.872;4.332;2022-10-16T08:52:20;16.10;99.90
39665;DHT22;26679;50.872;4.332;2022-10-16T08:54:47;16.00;99.90
39665;DHT22;26679;50.872;4.332;2022-10-16T08:57:14;16.10;99.90
39665;DHT22;26679;50.872;4.332;2022-10-16T08:59:41;16.10;99.90
39665;DHT22;26679;50.872;4.332;2022-10-16T09:12:28;16.00;99.90
39665;DHT22;26679;50.872;4.332;2022-10-16T09:22:44;16.50;99.90
39665;DHT22;26679;50.872;4.332;2022-10-16T09:25:14;16.60;99.90
39665;DHT22;26679;50.872;4.332;2022-10-16T09:27:40;16.60;99.90
39665;DHT22;26679;50.872;4.332;2022-10-16T09:30:10;16.50;99.90
39665;DHT22;26679;50.872;4.332;2022-10-16T09:32:36;16.70;99.90
39665;DHT22;26679;50.872;4.332;2022-10-16T09:35:03;17.00;99.90
39665;DHT22;26679;50.872;4.332;2022-10-16T09:37:29;17.80;99.90
39665;DHT22;26679;50.872;4.332;2022-10-16T09:39:54;18.70;99.90
39665;DHT22;26679;50.872;4.332;2022-10-16T09:42:20;19.80;99.90
39665;DHT22;26679;50.872;4.332;2022-10-16T09:44:47;20.90;99.90
39665;DHT22;26679;50.872;4.332;2022-10-16T09:47:18;21.70;99.90
39665;DHT22;26679;50.872;4.332;2022-10-16T09:49:55;22.70;99.90
39665;DHT22;26679;50.872;4.332;2022-10-16T09:52:21;23.10;99.90
39665;DHT22;26679;50.872;4.332;2022-10-16T09:54:54;23.10;99.90
39665;DHT22;26679;50.872;4.332;2022-10-16T09:57:20;23.40;99.90
39665;DHT22;26679;50.872;4.332;2022-10-16T09:59:47;23.30;99.90
39665;DHT22;26679;50.872;4.332;2022-10-16T10:02:14;23.30;99.90
39665;DHT22;26679;50.872;4.332;2022-10-16T10:04:41;23.60;99.90
39665;DHT22;26679;50.872;4.332;2022-10-16T10:07:07;23.70;99.90
39665;DHT22;26679;50.872;4.332;2022-10-16T10:09:42;23.90;99.90
39665;DHT22;26679;50.872;4.332;2022-10-16T10:14:49;23.90;99.50
39665;DHT22;26679;50.872;4.332;2022-10-16T10:22:29;24.60;98.50
39665;DHT22;26679;50.872;4.332;2022-10-16T10:24:55;24.80;98.10
39665;DHT22;26679;50.872;4.332;2022-10-16T10:27:22;24.40;98.30
39665;DHT22;26679;50.872;4.332;2022-10-16T10:32:28;23.50;98.70
39665;DHT22;26679;50.872;4.332;2022-10-16T10:42:51;20.40;99.90
39665;DHT22;26679;50.872;4.332;2022-10-16T10:45:22;20.40;99.90
39665;DHT22;26679;50.872;4.332;2022-10-16T10:47:59;21.20;99.90
39665;DHT22;26679;50.872;4.332;2022-10-16T10:50:35;22.30;99.90
39665;DHT22;26679;50.872;4.332;2022-10-16T11:05:49;24.30;99.20
39665;DHT22;26679;50.872;4.332;2022-10-16T11:08:20;24.50;98.30
39665;DHT22;26679;50.872;4.332;2022-10-16T11:10:55;24.80;97.60
39665;DHT22;26679;50.872;4.332;2022-10-16T11:15:51;24.50;97.50
39665;DHT22;26679;50.872;4.332;2022-10-16T11:18:22;25.10;97.40
39665;DHT22;26679;50.872;4.332;2022-10-16T11:20:57;25.50;97.30
39665;DHT22;26679;50.872;4.332;2022-10-16T11:23:25;25.50;96.50
39665;DHT22;26679;50.872;4.332;2022-10-16T11:25:52;26.10;96.40
39665;DHT22;26679;50.872;4.332;2022-10-16T11:28:19;26.60;95.80
39665;DHT22;26679;50.872;4.332;2022-10-16T11:33:20;26.50;95.00
39665;DHT22;26679;50.872;4.332;2022-10-16T11:40:53;27.50;94.70
39665;DHT22;26679;50.872;4.332;2022-10-16T11:43:30;27.80;94.30
39665;DHT22;26679;50.872;4.332;2022-10-16T11:45:57;27.40;93.90
39665;DHT22;26679;50.872;4.332;2022-10-16T11:48:31;27.00;94.90
39665;DHT22;26679;50.872;4.332;2022-10-16T11:51:07;25.90;94.60
39665;DHT22;26679;50.872;4.332;2022-10-16T11:56:07;24.10;96.20
39665;DHT22;26679;50.872;4.332;2022-10-16T11:58:35;23.80;96.50
39665;DHT22;26679;50.872;4.332;2022-10-16T12:01:14;23.60;96.40
39665;DHT22;26679;50.872;4.332;2022-10-16T12:03:47;23.20;96.90
39665;DHT22;26679;50.872;4.332;2022-10-16T12:08:47;23.00;97.20
39665;DHT22;26679;50.872;4.332;2022-10-16T12:13:49;23.00;96.50
39665;DHT22;26679;50.872;4.332;2022-10-16T12:18:41;23.30;96.60
39665;DHT22;26679;50.872;4.332;2022-10-16T12:21:07;23.10;96.40
39665;DHT22;26679;50.872;4.332;2022-10-16T12:24:19;23.00;96.30
39665;DHT22;26679;50.872;4.332;2022-10-16T12:26:33;22.10;97.50
39665;DHT22;26679;50.872;4.332;2022-10-16T12:31:37;22.50;97.70
39665;DHT22;26679;50.872;4.332;2022-10-16T12:34:04;22.70;97.60
39665;DHT22;26679;50.872;4.332;2022-10-16T12:36:31;22.80;97.40
39665;DHT22;26679;50.872;4.332;2022-10-16T12:38:57;22.70;97.70
39665;DHT22;26679;50.872;4.332;2022-10-16T12:41:35;22.90;98.00
39665;DHT22;26679;50.872;4.332;2022-10-16T12:44:04;22.90;98.00
39665;DHT22;26679;50.872;4.332;2022-10-16T12:53:58;22.30;97.90
39665;DHT22;26679;50.872;4.332;2022-10-16T12:56:27;22.20;98.10
39665;DHT22;26679;50.872;4.332;2022-10-16T12:58:59;22.10;98.10
39665;DHT22;26679;50.872;4.332;2022-10-16T13:04:08;22.20;98.10
39665;DHT22;26679;50.872;4.332;2022-10-16T13:06:43;22.30;98.30
39665;DHT22;26679;50.872;4.332;2022-10-16T13:09:19;22.30;98.30
39665;DHT22;26679;50.872;4.332;2022-10-16T13:29:46;22.10;99.00
39665;DHT22;26679;50.872;4.332;2022-10-16T13:32:17;22.10;99.20
39665;DHT22;26679;50.872;4.332;2022-10-16T13:34:46;22.10;99.20
39665;DHT22;26679;50.872;4.332;2022-10-16T13:37:18;22.20;99.10
39665;DHT22;26679;50.872;4.332;2022-10-16T13:39:44;22.30;99.10
39665;DHT22;26679;50.872;4.332;2022-10-16T13:42:10;22.30;99.10
39665;DHT22;26679;50.872;4.332;2022-10-16T13:44:43;22.20;99.20
39665;DHT22;26679;50.872;4.332;2022-10-16T13:47:13;22.00;99.60
39665;DHT22;26679;50.872;4.332;2022-10-16T13:49:40;21.40;99.90
39665;DHT22;26679;50.872;4.332;2022-10-16T13:52:05;21.50;99.90
39665;DHT22;26679;50.872;4.332;2022-10-16T13:54:31;21.50;99.90
39665;DHT22;26679;50.872;4.332;2022-10-16T13:57:04;21.30;99.90
39665;DHT22;26679;50.872;4.332;2022-10-16T13:59:33;21.00;99.90
39665;DHT22;26679;50.872;4.332;2022-10-16T14:01:59;21.10;99.90
39665;DHT22;26679;50.872;4.332;2022-10-16T14:04:27;21.30;99.90
39665;DHT22;26679;50.872;4.332;2022-10-16T14:06:54;21.10;99.90
39665;DHT22;26679;50.872;4.332;2022-10-16T14:09:24;20.80;99.90
39665;DHT22;26679;50.872;4.332;2022-10-16T14:14:24;20.70;99.90
39665;DHT22;26679;50.872;4.332;2022-10-16T14:16:50;20.70;99.90
39665;DHT22;26679;50.872;4.332;2022-10-16T14:19:20;20.70;99.90
39665;DHT22;26679;50.872;4.332;2022-10-16T14:21:48;20.80;99.90
39665;DHT22;26679;50.872;4.332;2022-10-16T14:24:24;20.90;99.90
39665;DHT22;26679;50.872;4.332;2022-10-16T14:26:50;20.90;99.90
39665;DHT22;26679;50.872;4.332;2022-10-16T14:29:19;21.00;99.90
39665;DHT22;26679;50.872;4.332;2022-10-16T14:32:20;20.90;99.90
39665;DHT22;26679;50.872;4.332;2022-10-16T14:34:34;21.00;99.90
39665;DHT22;26679;50.872;4.332;2022-10-16T14:37:23;21.00;99.90
39665;DHT22;26679;50.872;4.332;2022-10-16T14:39:49;20.90;99.90
39665;DHT22;26679;50.872;4.332;2022-10-16T14:42:16;21.10;99.90
39665;DHT22;26679;50.872;4.332;2022-10-16T14:44:42;21.30;99.90
39665;DHT22;26679;50.872;4.332;2022-10-16T14:47:09;21.40;99.90
39665;DHT22;26679;50.872;4.332;2022-10-16T14:49:38;21.20;99.90
39665;DHT22;26679;50.872;4.332;2022-10-16T14:52:07;21.00;99.90
39665;DHT22;26679;50.872;4.332;2022-10-16T14:54:33;21.10;99.90
39665;DHT22;26679;50.872;4.332;2022-10-16T14:56:59;21.00;99.90
39665;DHT22;26679;50.872;4.332;2022-10-16T14:59:28;21.00;99.90
39665;DHT22;26679;50.872;4.332;2022-10-16T15:01:55;21.00;99.90
39665;DHT22;26679;50.872;4.332;2022-10-16T15:04:21;21.00;99.90
39665;DHT22;26679;50.872;4.332;2022-10-16T15:06:48;21.10;99.90
39665;DHT22;26679;50.872;4.332;2022-10-16T15:09:13;21.10;99.90
39665;DHT22;26679;50.872;4.332;2022-10-16T15:11:39;21.00;99.90
39665;DHT22;26679;50.872;4.332;2022-10-16T15:14:05;20.90;99.90
39665;DHT22;26679;50.872;4.332;2022-10-16T15:16:31;20.90;99.90
39665;DHT22;26679;50.872;4.332;2022-10-16T15:18:57;20.90;99.90
39665;DHT22;26679;50.872;4.332;2022-10-16T15:23:48;20.80;99.90
39665;DHT22;26679;50.872;4.332;2022-10-16T15:26:14;20.90;99.90
39665;DHT22;26679;50.872;4.332;2022-10-16T15:28:40;20.60;99.90
39665;DHT22;26679;50.872;4.332;2022-10-16T15:31:05;20.50;99.90
39665;DHT22;26679;50.872;4.332;2022-10-16T15:33:31;20.50;99.90
39665;DHT22;26679;50.872;4.332;2022-10-16T15:35:59;20.50;99.90
39665;DHT22;26679;50.872;4.332;2022-10-16T15:38:25;20.60;99.90
39665;DHT22;26679;50.872;4.332;2022-10-16T15:40:51;20.60;99.90
39665;DHT22;26679;50.872;4.332;2022-10-16T15:43:17;20.50;99.90
39665;DHT22;26679;50.872;4.332;2022-10-16T15:45:44;20.50;99.90
39665;DHT22;26679;50.872;4.332;2022-10-16T15:48:10;20.50;99.90
39665;DHT22;26679;50.872;4.332;2022-10-16T15:50:36;20.50;99.90
39665;DHT22;26679;50.872;4.332;2022-10-16T15:53:02;20.50;99.90
39665;DHT22;26679;50.872;4.332;2022-10-16T15:55:28;20.50;99.90
39665;DHT22;26679;50.872;4.332;2022-10-16T15:57:53;20.50;99.90
39665;DHT22;26679;50.872;4.332;2022-10-16T16:00:19;20.50;99.90
39665;DHT22;26679;50.872;4.332;2022-10-16T16:02:53;20.50;99.90
39665;DHT22;26679;50.872;4.332;2022-10-16T16:05:20;20.50;99.90
39665;DHT22;26679;50.872;4.332;2022-10-16T16:07:45;20.50;99.90
39665;DHT22;26679;50.872;4.332;2022-10-16T16:10:11;20.40;99.90
39665;DHT22;26679;50.872;4.332;2022-10-16T16:12:37;20.40;99.90
39665;DHT22;26679;50.872;4.332;2022-10-16T16:15:06;20.40;99.90
39665;DHT22;26679;50.872;4.332;2022-10-16T16:17:33;20.30;99.90
39665;DHT22;26679;50.872;4.332;2022-10-16T16:19:58;20.30;99.90
39665;DHT22;26679;50.872;4.332;2022-10-16T16:22:24;20.30;99.90
39665;DHT22;26679;50.872;4.332;2022-10-16T16:24:50;20.20;99.90
39665;DHT22;26679;50.872;4.332;2022-10-16T16:27:15;20.20;99.90
39665;DHT22;26679;50.872;4.332;2022-10-16T16:29:41;20.20;99.90
39665;DHT22;26679;50.872;4.332;2022-10-16T16:32:07;20.20;99.90
39665;DHT22;26679;50.872;4.332;2022-10-16T16:34:32;20.20;99.90
39665;DHT22;26679;50.872;4.332;2022-10-16T16:36:58;20.20;99.90
39665;DHT22;26679;50.872;4.332;2022-10-16T16:39:23;20.10;99.90
39665;DHT22;26679;50.872;4.332;2022-10-16T16:41:49;20.10;99.90
39665;DHT22;26679;50.872;4.332;2022-10-16T16:44:15;20.10;99.90
39665;DHT22;26679;50.872;4.332;2022-10-16T16:46:41;20.00;99.90
39665;DHT22;26679;50.872;4.332;2022-10-16T16:49:10;20.00;99.90
39665;DHT22;26679;50.872;4.332;2022-10-16T16:51:36;20.00;99.90
39665;DHT22;26679;50.872;4.332;2022-10-16T16:54:02;19.90;99.90
39665;DHT22;26679;50.872;4.332;2022-10-16T16:56:28;19.90;99.90
39665;DHT22;26679;50.872;4.332;2022-10-16T16:58:54;20.00;99.90
39665;DHT22;26679;50.872;4.332;2022-10-16T17:01:20;20.00;99.90
39665;DHT22;26679;50.872;4.332;2022-10-16T17:03:46;19.90;99.90
39665;DHT22;26679;50.872;4.332;2022-10-16T17:06:15;19.50;99.90
39665;DHT22;26679;50.872;4.332;2022-10-16T17:08:41;19.10;99.90
39665;DHT22;26679;50.872;4.332;2022-10-16T17:11:11;18.90;99.90
39665;DHT22;26679;50.872;4.332;2022-10-16T17:13:37;18.70;99.90
39665;DHT22;26679;50.872;4.332;2022-10-16T17:16:03;18.60;99.90
39665;DHT22;26679;50.872;4.332;2022-10-16T17:18:29;18.60;99.90
39665;DHT22;26679;50.872;4.332;2022-10-16T17:20:58;18.60;99.90
39665;DHT22;26679;50.872;4.332;2022-10-16T17:23:23;18.60;99.90
39665;DHT22;26679;50.872;4.332;2022-10-16T17:25:49;18.50;99.90
39665;DHT22;26679;50.872;4.332;2022-10-16T17:28:14;18.50;99.90
39665;DHT22;26679;50.872;4.332;2022-10-16T17:30:40;18.40;99.90
39665;DHT22;26679;50.872;4.332;2022-10-16T17:33:06;18.30;99.90
39665;DHT22;26679;50.872;4.332;2022-10-16T17:35:36;18.10;99.90